sensor_id;sensor_type;location;lat;lon;timestamp;P1;durP1;ratioP1;P2;durP2;ratioP2
9005;SDS011;62284;50.702;7.140;2022-12-07T00:00:18;20.90;;;19.20;;
9005;SDS011;62284;50.702;7.140;2022-12-07T00:02:45;23.15;;;21.05;;
9005;SDS011;62284;50.702;7.140;2022-12-07T00:05:12;22.87;;;20.97;;
9005;SDS011;62284;50.702;7.140;2022-12-07T00:07:39;21.50;;;19.77;;
9005;SDS011;62284;50.702;7.140;2022-12-07T00:10:07;21.98;;;20.17;;
9005;SDS011;62284;50.702;7.140;2022-12-07T00:12:34;22.73;;;20.83;;
9005;SDS011;62284;50.702;7.140;2022-12-07T00:15:01;21.37;;;19.77;;
9005;SDS011;62284;50.702;7.140;2022-12-07T00:17:29;20.77;;;19.15;;
9005;SDS011;62284;50.702;7.140;2022-12-07T00:19:55;21.50;;;19.70;;
9005;SDS011;62284;50.702;7.140;2022-12-07T00:22:22;21.15;;;19.45;;
9005;SDS011;62284;50.702;7.140;2022-12-07T00:24:49;22.75;;;20.83;;
9005;SDS011;62284;50.702;7.140;2022-12-07T00:27:17;20.88;;;19.25;;
9005;SDS011;62284;50.702;7.140;2022-12-07T00:29:44;22.92;;;21.13;;
9005;SDS011;62284;50.702;7.140;2022-12-07T00:32:11;21.83;;;19.97;;
9005;SDS011;62284;50.702;7.140;2022-12-07T00:34:37;22.45;;;20.65;;
9005;SDS011;62284;50.702;7.140;2022-12-07T00:37:04;21.65;;;19.90;;
9005;SDS011;62284;50.702;7.140;2022-12-07T00:39:31;21.60;;;19.90;;
9005;SDS011;62284;50.702;7.140;2022-12-07T00:41:58;20.73;;;19.10;;
9005;SDS011;62284;50.702;7.140;2022-12-07T00:44:26;20.88;;;19.27;;
9005;SDS011;62284;50.702;7.140;2022-12-07T00:46:53;23.23;;;21.23;;
9005;SDS011;62284;50.702;7.140;2022-12-07T00:49:20;21.23;;;19.63;;
9005;SDS011;62284;50.702;7.140;2022-12-07T00:51:47;20.00;;;18.40;;
9005;SDS011;62284;50.702;7.140;2022-12-07T00:54:15;20.90;;;19.30;;
9005;SDS011;62284;50.702;7.140;2022-12-07T00:56:42;20.85;;;19.05;;
9005;SDS011;62284;50.702;7.140;2022-12-07T00:59:10;21.23;;;19.52;;
9005;SDS011;62284;50.702;7.140;2022-12-07T01:01:41;21.95;;;19.95;;
9005;SDS011;62284;50.702;7.140;2022-12-07T01:04:08;21.20;;;19.38;;
9005;SDS011;62284;50.702;7.140;2022-12-07T01:06:35;20.88;;;19.27;;
9005;SDS011;62284;50.702;7.140;2022-12-07T01:09:01;21.50;;;19.83;;
9005;SDS011;62284;50.702;7.140;2022-12-07T01:11:29;19.97;;;18.37;;
9005;SDS011;62284;50.702;7.140;2022-12-07T01:13:58;20.98;;;19.42;;
9005;SDS011;62284;50.702;7.140;2022-12-07T01:16:26;19.60;;;18.00;;
9005;SDS011;62284;50.702;7.140;2022-12-07T01:18:56;20.85;;;19.17;;
9005;SDS011;62284;50.702;7.140;2022-12-07T01:21:24;19.35;;;17.75;;
9005;SDS011;62284;50.702;7.140;2022-12-07T01:23:53;20.45;;;18.75;;
9005;SDS011;62284;50.702;7.140;2022-12-07T01:26:21;20.58;;;18.88;;
9005;SDS011;62284;50.702;7.140;2022-12-07T01:28:49;19.42;;;18.02;;
9005;SDS011;62284;50.702;7.140;2022-12-07T01:31:16;19.92;;;18.33;;
9005;SDS011;62284;50.702;7.140;2022-12-07T01:33:46;20.13;;;18.42;;
9005;SDS011;62284;50.702;7.140;2022-12-07T01:36:17;19.55;;;18.05;;
9005;SDS011;62284;50.702;7.140;2022-12-07T01:38:46;19.30;;;17.75;;
9005;SDS011;62284;50.702;7.140;2022-12-07T01:41:14;19.75;;;18.25;;
9005;SDS011;62284;50.702;7.140;2022-12-07T01:46:43;19.55;;;18.10;;
9005;SDS011;62284;50.702;7.140;2022-12-07T01:49:14;20.27;;;18.88;;
9005;SDS011;62284;50.702;7.140;2022-12-07T01:51:48;20.77;;;19.17;;
9005;SDS011;62284;50.702;7.140;2022-12-07T01:54:17;20.08;;;18.50;;
9005;SDS011;62284;50.702;7.140;2022-12-07T01:56:47;20.55;;;18.95;;
9005;SDS011;62284;50.702;7.140;2022-12-07T01:59:16;20.63;;;19.02;;
9005;SDS011;62284;50.702;7.140;2022-12-07T02:01:45;21.10;;;19.40;;
9005;SDS011;62284;50.702;7.140;2022-12-07T02:04:12;19.88;;;18.38;;
9005;SDS011;62284;50.702;7.140;2022-12-07T02:06:38;21.42;;;19.73;;
9005;SDS011;62284;50.702;7.140;2022-12-07T02:09:09;21.40;;;19.80;;
9005;SDS011;62284;50.702;7.140;2022-12-07T02:11:36;22.25;;;20.50;;
9005;SDS011;62284;50.702;7.140;2022-12-07T02:14:03;21.58;;;19.95;;
9005;SDS011;62284;50.702;7.140;2022-12-07T02:16:32;20.80;;;19.20;;
9005;SDS011;62284;50.702;7.140;2022-12-07T02:19:10;20.98;;;19.45;;
9005;SDS011;62284;50.702;7.140;2022-12-07T02:21:52;22.77;;;21.08;;
9005;SDS011;62284;50.702;7.140;2022-12-07T02:24:31;20.38;;;18.88;;
9005;SDS011;62284;50.702;7.140;2022-12-07T02:30:05;22.13;;;20.33;;
9005;SDS011;62284;50.702;7.140;2022-12-07T02:32:39;22.45;;;20.65;;
9005;SDS011;62284;50.702;7.140;2022-12-07T02:35:11;23.25;;;21.55;;
9005;SDS011;62284;50.702;7.140;2022-12-07T02:37:46;23.40;;;21.70;;
9005;SDS011;62284;50.702;7.140;2022-12-07T02:40:21;23.60;;;21.83;;
9005;SDS011;62284;50.702;7.140;2022-12-07T02:42:52;22.60;;;20.80;;
9005;SDS011;62284;50.702;7.140;2022-12-07T02:45:27;23.80;;;22.00;;
9005;SDS011;62284;50.702;7.140;2022-12-07T02:47:58;23.15;;;21.25;;
9005;SDS011;62284;50.702;7.140;2022-12-07T02:50:26;23.95;;;22.10;;
9005;SDS011;62284;50.702;7.140;2022-12-07T02:52:53;22.95;;;21.10;;
9005;SDS011;62284;50.702;7.140;2022-12-07T02:55:22;23.97;;;22.17;;
9005;SDS011;62284;50.702;7.140;2022-12-07T02:57:57;24.05;;;22.05;;
9005;SDS011;62284;50.702;7.140;2022-12-07T03:00:39;23.95;;;22.17;;
9005;SDS011;62284;50.702;7.140;2022-12-07T03:03:12;22.38;;;20.65;;
9005;SDS011;62284;50.702;7.140;2022-12-07T03:05:44;23.27;;;21.50;;
9005;SDS011;62284;50.702;7.140;2022-12-07T03:08:21;23.07;;;21.27;;
9005;SDS011;62284;50.702;7.140;2022-12-07T03:10:57;22.80;;;21.05;;
9005;SDS011;62284;50.702;7.140;2022-12-07T03:13:28;23.25;;;21.45;;
9005;SDS011;62284;50.702;7.140;2022-12-07T03:16:02;23.20;;;21.38;;
9005;SDS011;62284;50.702;7.140;2022-12-07T03:18:35;23.00;;;21.30;;
9005;SDS011;62284;50.702;7.140;2022-12-07T03:21:09;23.42;;;21.60;;
9005;SDS011;62284;50.702;7.140;2022-12-07T03:23:40;22.67;;;20.88;;
9005;SDS011;62284;50.702;7.140;2022-12-07T03:26:10;22.23;;;20.52;;
9005;SDS011;62284;50.702;7.140;2022-12-07T03:28:41;23.90;;;21.90;;
9005;SDS011;62284;50.702;7.140;2022-12-07T03:31:13;22.52;;;20.80;;
9005;SDS011;62284;50.702;7.140;2022-12-07T03:33:46;23.30;;;21.40;;
9005;SDS011;62284;50.702;7.140;2022-12-07T03:36:20;22.92;;;21.05;;
9005;SDS011;62284;50.702;7.140;2022-12-07T03:38:53;21.75;;;20.08;;
9005;SDS011;62284;50.702;7.140;2022-12-07T03:41:25;21.05;;;19.42;;
9005;SDS011;62284;50.702;7.140;2022-12-07T03:43:55;23.77;;;22.02;;
9005;SDS011;62284;50.702;7.140;2022-12-07T03:46:27;23.15;;;21.38;;
9005;SDS011;62284;50.702;7.140;2022-12-07T03:49:03;21.42;;;19.77;;
9005;SDS011;62284;50.702;7.140;2022-12-07T03:51:37;25.45;;;23.45;;
9005;SDS011;62284;50.702;7.140;2022-12-07T03:54:10;23.52;;;21.73;;
9005;SDS011;62284;50.702;7.140;2022-12-07T03:56:40;24.50;;;22.60;;
9005;SDS011;62284;50.702;7.140;2022-12-07T03:59:10;21.88;;;20.17;;
9005;SDS011;62284;50.702;7.140;2022-12-07T04:01:42;24.30;;;22.50;;
9005;SDS011;62284;50.702;7.140;2022-12-07T04:04:09;22.20;;;20.45;;
9005;SDS011;62284;50.702;7.140;2022-12-07T04:06:36;24.63;;;22.70;;
9005;SDS011;62284;50.702;7.140;2022-12-07T04:09:03;23.48;;;21.70;;
9005;SDS011;62284;50.702;7.140;2022-12-07T04:11:29;22.42;;;20.73;;
9005;SDS011;62284;50.702;7.140;2022-12-07T04:13:56;26.02;;;24.02;;
9005;SDS011;62284;50.702;7.140;2022-12-07T04:16:42;22.17;;;20.45;;
9005;SDS011;62284;50.702;7.140;2022-12-07T04:19:09;23.70;;;21.87;;
9005;SDS011;62284;50.702;7.140;2022-12-07T04:21:36;23.53;;;21.73;;
9005;SDS011;62284;50.702;7.140;2022-12-07T04:24:03;22.13;;;20.57;;
9005;SDS011;62284;50.702;7.140;2022-12-07T04:26:30;23.07;;;21.27;;
9005;SDS011;62284;50.702;7.140;2022-12-07T04:28:57;21.92;;;20.30;;
9005;SDS011;62284;50.702;7.140;2022-12-07T04:31:24;22.75;;;20.98;;
9005;SDS011;62284;50.702;7.140;2022-12-07T04:33:52;22.63;;;20.83;;
9005;SDS011;62284;50.702;7.140;2022-12-07T04:36:19;23.23;;;21.33;;
9005;SDS011;62284;50.702;7.140;2022-12-07T04:38:46;20.88;;;19.25;;
9005;SDS011;62284;50.702;7.140;2022-12-07T04:41:13;22.75;;;21.02;;
9005;SDS011;62284;50.702;7.140;2022-12-07T04:43:40;23.05;;;21.10;;
9005;SDS011;62284;50.702;7.140;2022-12-07T04:46:07;21.92;;;20.20;;
9005;SDS011;62284;50.702;7.140;2022-12-07T04:48:33;20.05;;;18.58;;
9005;SDS011;62284;50.702;7.140;2022-12-07T04:51:03;21.02;;;19.42;;
9005;SDS011;62284;50.702;7.140;2022-12-07T04:53:30;22.95;;;20.95;;
9005;SDS011;62284;50.702;7.140;2022-12-07T04:55:57;22.35;;;20.55;;
9005;SDS011;62284;50.702;7.140;2022-12-07T04:58:26;23.95;;;21.95;;
9005;SDS011;62284;50.702;7.140;2022-12-07T05:00:53;23.58;;;21.67;;
9005;SDS011;62284;50.702;7.140;2022-12-07T05:03:20;24.10;;;22.23;;
9005;SDS011;62284;50.702;7.140;2022-12-07T05:05:47;23.33;;;21.52;;
9005;SDS011;62284;50.702;7.140;2022-12-07T05:08:15;22.88;;;21.02;;
9005;SDS011;62284;50.702;7.140;2022-12-07T05:10:42;22.00;;;20.23;;
9005;SDS011;62284;50.702;7.140;2022-12-07T05:13:09;23.40;;;21.60;;
9005;SDS011;62284;50.702;7.140;2022-12-07T05:15:36;24.25;;;22.35;;
9005;SDS011;62284;50.702;7.140;2022-12-07T05:18:03;24.23;;;22.20;;
9005;SDS011;62284;50.702;7.140;2022-12-07T05:20:30;23.23;;;21.30;;
9005;SDS011;62284;50.702;7.140;2022-12-07T05:22:57;24.15;;;22.13;;
9005;SDS011;62284;50.702;7.140;2022-12-07T05:25:25;23.63;;;21.65;;
9005;SDS011;62284;50.702;7.140;2022-12-07T05:27:53;23.63;;;21.67;;
9005;SDS011;62284;50.702;7.140;2022-12-07T05:30:21;21.98;;;20.08;;
9005;SDS011;62284;50.702;7.140;2022-12-07T05:32:48;19.88;;;18.38;;
9005;SDS011;62284;50.702;7.140;2022-12-07T05:35:15;21.60;;;19.70;;
9005;SDS011;62284;50.702;7.140;2022-12-07T05:37:41;22.42;;;20.67;;
9005;SDS011;62284;50.702;7.140;2022-12-07T05:40:09;18.58;;;16.98;;
9005;SDS011;62284;50.702;7.140;2022-12-07T05:42:38;21.70;;;19.98;;
9005;SDS011;62284;50.702;7.140;2022-12-07T05:45:06;22.02;;;20.13;;
9005;SDS011;62284;50.702;7.140;2022-12-07T05:47:33;22.67;;;20.67;;
9005;SDS011;62284;50.702;7.140;2022-12-07T05:50:00;21.88;;;20.17;;
9005;SDS011;62284;50.702;7.140;2022-12-07T05:52:27;23.30;;;21.40;;
9005;SDS011;62284;50.702;7.140;2022-12-07T05:54:54;22.65;;;20.75;;
9005;SDS011;62284;50.702;7.140;2022-12-07T05:57:21;21.38;;;19.58;;
9005;SDS011;62284;50.702;7.140;2022-12-07T05:59:49;20.33;;;18.73;;
9005;SDS011;62284;50.702;7.140;2022-12-07T06:02:15;21.38;;;19.60;;
9005;SDS011;62284;50.702;7.140;2022-12-07T06:04:43;21.98;;;19.98;;
9005;SDS011;62284;50.702;7.140;2022-12-07T06:07:12;23.48;;;21.58;;
9005;SDS011;62284;50.702;7.140;2022-12-07T06:09:39;21.88;;;20.08;;
9005;SDS011;62284;50.702;7.140;2022-12-07T06:12:09;21.50;;;19.80;;
9005;SDS011;62284;50.702;7.140;2022-12-07T06:14:56;21.25;;;19.45;;
9005;SDS011;62284;50.702;7.140;2022-12-07T06:17:23;20.83;;;19.13;;
9005;SDS011;62284;50.702;7.140;2022-12-07T06:19:50;23.00;;;20.98;;
9005;SDS011;62284;50.702;7.140;2022-12-07T06:22:17;21.77;;;19.83;;
9005;SDS011;62284;50.702;7.140;2022-12-07T06:24:44;21.02;;;19.33;;
9005;SDS011;62284;50.702;7.140;2022-12-07T06:27:11;21.70;;;20.00;;
9005;SDS011;62284;50.702;7.140;2022-12-07T06:29:38;20.90;;;19.10;;
9005;SDS011;62284;50.702;7.140;2022-12-07T06:32:06;20.83;;;18.90;;
9005;SDS011;62284;50.702;7.140;2022-12-07T06:34:33;19.90;;;18.30;;
9005;SDS011;62284;50.702;7.140;2022-12-07T06:37:00;21.45;;;19.73;;
9005;SDS011;62284;50.702;7.140;2022-12-07T06:39:27;20.95;;;19.25;;
9005;SDS011;62284;50.702;7.140;2022-12-07T06:41:54;21.73;;;19.88;;
9005;SDS011;62284;50.702;7.140;2022-12-07T06:44:22;19.73;;;17.95;;
9005;SDS011;62284;50.702;7.140;2022-12-07T06:46:50;19.50;;;17.95;;
9005;SDS011;62284;50.702;7.140;2022-12-07T06:49:19;20.33;;;18.60;;
9005;SDS011;62284;50.702;7.140;2022-12-07T06:51:45;19.58;;;17.98;;
9005;SDS011;62284;50.702;7.140;2022-12-07T06:54:13;18.98;;;17.27;;
9005;SDS011;62284;50.702;7.140;2022-12-07T06:56:41;20.55;;;18.77;;
9005;SDS011;62284;50.702;7.140;2022-12-07T06:59:08;19.15;;;17.60;;
9005;SDS011;62284;50.702;7.140;2022-12-07T07:01:35;20.02;;;18.42;;
9005;SDS011;62284;50.702;7.140;2022-12-07T07:04:02;20.05;;;18.35;;
9005;SDS011;62284;50.702;7.140;2022-12-07T07:06:30;22.25;;;20.20;;
9005;SDS011;62284;50.702;7.140;2022-12-07T07:08:58;20.85;;;19.13;;
9005;SDS011;62284;50.702;7.140;2022-12-07T07:11:25;19.17;;;17.70;;
9005;SDS011;62284;50.702;7.140;2022-12-07T07:13:52;20.73;;;18.73;;
9005;SDS011;62284;50.702;7.140;2022-12-07T07:16:21;19.20;;;17.60;;
9005;SDS011;62284;50.702;7.140;2022-12-07T07:18:49;18.60;;;17.00;;
9005;SDS011;62284;50.702;7.140;2022-12-07T07:21:16;20.17;;;18.50;;
9005;SDS011;62284;50.702;7.140;2022-12-07T07:23:44;18.90;;;17.15;;
9005;SDS011;62284;50.702;7.140;2022-12-07T07:26:11;17.95;;;16.55;;
9005;SDS011;62284;50.702;7.140;2022-12-07T07:28:38;17.52;;;16.13;;
9005;SDS011;62284;50.702;7.140;2022-12-07T07:31:05;18.02;;;16.33;;
9005;SDS011;62284;50.702;7.140;2022-12-07T07:33:31;17.27;;;15.87;;
9005;SDS011;62284;50.702;7.140;2022-12-07T07:35:58;16.25;;;14.82;;
9005;SDS011;62284;50.702;7.140;2022-12-07T07:38:25;15.98;;;14.68;;
9005;SDS011;62284;50.702;7.140;2022-12-07T07:40:53;16.10;;;14.80;;
9005;SDS011;62284;50.702;7.140;2022-12-07T07:43:20;15.30;;;14.00;;
9005;SDS011;62284;50.702;7.140;2022-12-07T07:45:47;16.83;;;15.33;;
9005;SDS011;62284;50.702;7.140;2022-12-07T07:48:14;16.30;;;14.87;;
9005;SDS011;62284;50.702;7.140;2022-12-07T07:50:40;16.95;;;15.45;;
9005;SDS011;62284;50.702;7.140;2022-12-07T07:53:07;16.83;;;15.52;;
9005;SDS011;62284;50.702;7.140;2022-12-07T07:55:34;16.92;;;15.50;;
9005;SDS011;62284;50.702;7.140;2022-12-07T07:58:02;17.37;;;15.97;;
9005;SDS011;62284;50.702;7.140;2022-12-07T08:00:29;17.52;;;16.13;;
9005;SDS011;62284;50.702;7.140;2022-12-07T08:02:56;16.58;;;15.27;;
9005;SDS011;62284;50.702;7.140;2022-12-07T08:05:24;17.73;;;16.23;;
9005;SDS011;62284;50.702;7.140;2022-12-07T08:07:51;17.15;;;15.75;;
9005;SDS011;62284;50.702;7.140;2022-12-07T08:10:17;18.60;;;17.10;;
9005;SDS011;62284;50.702;7.140;2022-12-07T08:12:44;18.60;;;17.03;;
9005;SDS011;62284;50.702;7.140;2022-12-07T08:15:30;18.85;;;17.35;;
9005;SDS011;62284;50.702;7.140;2022-12-07T08:17:57;18.65;;;16.98;;
9005;SDS011;62284;50.702;7.140;2022-12-07T08:20:25;19.80;;;18.10;;
9005;SDS011;62284;50.702;7.140;2022-12-07T08:22:52;19.48;;;17.88;;
9005;SDS011;62284;50.702;7.140;2022-12-07T08:25:18;20.02;;;18.33;;
9005;SDS011;62284;50.702;7.140;2022-12-07T08:27:45;20.30;;;18.50;;
9005;SDS011;62284;50.702;7.140;2022-12-07T08:30:13;19.47;;;17.77;;
9005;SDS011;62284;50.702;7.140;2022-12-07T08:32:41;19.58;;;17.77;;
9005;SDS011;62284;50.702;7.140;2022-12-07T08:35:09;19.92;;;18.30;;
9005;SDS011;62284;50.702;7.140;2022-12-07T08:37:36;18.60;;;17.00;;
9005;SDS011;62284;50.702;7.140;2022-12-07T08:40:04;20.17;;;18.23;;
9005;SDS011;62284;50.702;7.140;2022-12-07T08:42:33;18.50;;;16.90;;
9005;SDS011;62284;50.702;7.140;2022-12-07T08:45:05;18.52;;;16.92;;
9005;SDS011;62284;50.702;7.140;2022-12-07T08:47:33;20.20;;;18.30;;
9005;SDS011;62284;50.702;7.140;2022-12-07T08:50:02;17.83;;;16.30;;
9005;SDS011;62284;50.702;7.140;2022-12-07T08:52:29;17.25;;;15.68;;
9005;SDS011;62284;50.702;7.140;2022-12-07T08:54:57;17.02;;;15.48;;
9005;SDS011;62284;50.702;7.140;2022-12-07T08:57:25;17.48;;;16.08;;
9005;SDS011;62284;50.702;7.140;2022-12-07T08:59:54;17.05;;;15.60;;
9005;SDS011;62284;50.702;7.140;2022-12-07T09:02:20;17.58;;;16.02;;
9005;SDS011;62284;50.702;7.140;2022-12-07T09:04:47;16.20;;;14.80;;
9005;SDS011;62284;50.702;7.140;2022-12-07T09:07:15;17.65;;;16.10;;
9005;SDS011;62284;50.702;7.140;2022-12-07T09:09:42;16.85;;;15.35;;
9005;SDS011;62284;50.702;7.140;2022-12-07T09:12:09;16.05;;;14.65;;
9005;SDS011;62284;50.702;7.140;2022-12-07T09:14:36;17.00;;;15.32;;
9005;SDS011;62284;50.702;7.140;2022-12-07T09:17:06;15.02;;;13.63;;
9005;SDS011;62284;50.702;7.140;2022-12-07T09:19:34;15.05;;;13.68;;
9005;SDS011;62284;50.702;7.140;2022-12-07T09:22:01;15.45;;;14.10;;
9005;SDS011;62284;50.702;7.140;2022-12-07T09:24:31;14.02;;;12.88;;
9005;SDS011;62284;50.702;7.140;2022-12-07T09:26:58;14.18;;;12.88;;
9005;SDS011;62284;50.702;7.140;2022-12-07T09:29:25;14.38;;;13.18;;
9005;SDS011;62284;50.702;7.140;2022-12-07T09:31:51;13.93;;;12.65;;
9005;SDS011;62284;50.702;7.140;2022-12-07T09:34:18;13.38;;;12.18;;
9005;SDS011;62284;50.702;7.140;2022-12-07T09:36:46;12.93;;;11.73;;
9005;SDS011;62284;50.702;7.140;2022-12-07T09:39:13;12.43;;;11.18;;
9005;SDS011;62284;50.702;7.140;2022-12-07T09:41:42;12.80;;;11.65;;
9005;SDS011;62284;50.702;7.140;2022-12-07T09:44:11;12.77;;;11.45;;
9005;SDS011;62284;50.702;7.140;2022-12-07T09:46:40;12.25;;;11.13;;
9005;SDS011;62284;50.702;7.140;2022-12-07T09:49:09;11.68;;;10.70;;
9005;SDS011;62284;50.702;7.140;2022-12-07T09:51:40;12.23;;;11.13;;
9005;SDS011;62284;50.702;7.140;2022-12-07T09:54:08;15.18;;;11.10;;
9005;SDS011;62284;50.702;7.140;2022-12-07T09:56:38;11.43;;;10.52;;
9005;SDS011;62284;50.702;7.140;2022-12-07T09:59:09;11.00;;;10.00;;
9005;SDS011;62284;50.702;7.140;2022-12-07T10:01:39;11.00;;;9.88;;
9005;SDS011;62284;50.702;7.140;2022-12-07T10:04:09;10.55;;;9.57;;
9005;SDS011;62284;50.702;7.140;2022-12-07T10:06:39;10.60;;;9.57;;
9005;SDS011;62284;50.702;7.140;2022-12-07T10:09:10;10.73;;;9.70;;
9005;SDS011;62284;50.702;7.140;2022-12-07T10:14:33;9.85;;;8.93;;
9005;SDS011;62284;50.702;7.140;2022-12-07T10:17:02;10.15;;;9.32;;
9005;SDS011;62284;50.702;7.140;2022-12-07T10:22:57;9.10;;;8.30;;
9005;SDS011;62284;50.702;7.140;2022-12-07T10:25:27;9.82;;;8.90;;
9005;SDS011;62284;50.702;7.140;2022-12-07T10:27:58;9.15;;;8.30;;
9005;SDS011;62284;50.702;7.140;2022-12-07T10:30:28;8.20;;;7.18;;
9005;SDS011;62284;50.702;7.140;2022-12-07T10:32:56;7.35;;;6.22;;
9005;SDS011;62284;50.702;7.140;2022-12-07T10:35:24;6.40;;;5.68;;
9005;SDS011;62284;50.702;7.140;2022-12-07T10:37:53;9.40;;;8.10;;
9005;SDS011;62284;50.702;7.140;2022-12-07T10:40:29;8.18;;;7.38;;
9005;SDS011;62284;50.702;7.140;2022-12-07T10:43:02;8.43;;;7.63;;
9005;SDS011;62284;50.702;7.140;2022-12-07T10:45:32;8.13;;;7.32;;
9005;SDS011;62284;50.702;7.140;2022-12-07T10:48:02;8.70;;;7.15;;
9005;SDS011;62284;50.702;7.140;2022-12-07T10:50:52;7.22;;;6.53;;
9005;SDS011;62284;50.702;7.140;2022-12-07T10:53:34;7.38;;;6.68;;
9005;SDS011;62284;50.702;7.140;2022-12-07T10:59:12;8.13;;;7.43;;
9005;SDS011;62284;50.702;7.140;2022-12-07T11:02:00;8.63;;;7.68;;
9005;SDS011;62284;50.702;7.140;2022-12-07T11:04:50;8.02;;;7.22;;
9005;SDS011;62284;50.702;7.140;2022-12-07T11:07:29;8.02;;;7.22;;
9005;SDS011;62284;50.702;7.140;2022-12-07T11:10:05;8.68;;;7.80;;
9005;SDS011;62284;50.702;7.140;2022-12-07T11:12:47;8.15;;;7.35;;
9005;SDS011;62284;50.702;7.140;2022-12-07T11:15:40;7.57;;;6.88;;
9005;SDS011;62284;50.702;7.140;2022-12-07T11:18:24;6.72;;;6.13;;
9005;SDS011;62284;50.702;7.140;2022-12-07T11:20:59;8.40;;;7.25;;
9005;SDS011;62284;50.702;7.140;2022-12-07T11:23:37;8.13;;;7.32;;
9005;SDS011;62284;50.702;7.140;2022-12-07T11:26:14;8.25;;;7.45;;
9005;SDS011;62284;50.702;7.140;2022-12-07T11:28:53;7.10;;;6.40;;
9005;SDS011;62284;50.702;7.140;2022-12-07T11:31:33;7.03;;;6.43;;
9005;SDS011;62284;50.702;7.140;2022-12-07T11:34:13;6.80;;;6.10;;
9005;SDS011;62284;50.702;7.140;2022-12-07T11:36:44;6.65;;;6.05;;
9005;SDS011;62284;50.702;7.140;2022-12-07T11:39:16;6.10;;;5.50;;
9005;SDS011;62284;50.702;7.140;2022-12-07T11:41:52;5.43;;;4.93;;
9005;SDS011;62284;50.702;7.140;2022-12-07T11:44:25;5.32;;;4.75;;
9005;SDS011;62284;50.702;7.140;2022-12-07T11:46:58;6.40;;;4.80;;
9005;SDS011;62284;50.702;7.140;2022-12-07T11:49:37;5.57;;;5.03;;
9005;SDS011;62284;50.702;7.140;2022-12-07T11:52:11;6.13;;;5.15;;
9005;SDS011;62284;50.702;7.140;2022-12-07T11:54:44;5.70;;;5.05;;
9005;SDS011;62284;50.702;7.140;2022-12-07T11:57:14;5.18;;;4.75;;
9005;SDS011;62284;50.702;7.140;2022-12-07T11:59:45;5.32;;;4.53;;
9005;SDS011;62284;50.702;7.140;2022-12-07T12:02:16;5.63;;;4.75;;
9005;SDS011;62284;50.702;7.140;2022-12-07T12:04:51;7.45;;;5.05;;
9005;SDS011;62284;50.702;7.140;2022-12-07T12:07:25;4.65;;;4.15;;
9005;SDS011;62284;50.702;7.140;2022-12-07T12:09:54;6.10;;;4.70;;
9005;SDS011;62284;50.702;7.140;2022-12-07T12:12:38;5.85;;;5.25;;
9005;SDS011;62284;50.702;7.140;2022-12-07T12:15:23;6.65;;;4.75;;
9005;SDS011;62284;50.702;7.140;2022-12-07T12:18:23;5.10;;;4.50;;
9005;SDS011;62284;50.702;7.140;2022-12-07T12:21:08;6.50;;;5.25;;
9005;SDS011;62284;50.702;7.140;2022-12-07T12:23:40;5.28;;;4.30;;
9005;SDS011;62284;50.702;7.140;2022-12-07T12:26:13;5.43;;;4.65;;
9005;SDS011;62284;50.702;7.140;2022-12-07T12:28:49;7.47;;;5.10;;
9005;SDS011;62284;50.702;7.140;2022-12-07T12:31:29;7.78;;;5.20;;
9005;SDS011;62284;50.702;7.140;2022-12-07T12:34:01;6.07;;;5.10;;
9005;SDS011;62284;50.702;7.140;2022-12-07T12:36:44;6.00;;;5.40;;
9005;SDS011;62284;50.702;7.140;2022-12-07T12:39:12;5.72;;;5.22;;
9005;SDS011;62284;50.702;7.140;2022-12-07T12:50:24;6.82;;;5.90;;
9005;SDS011;62284;50.702;7.140;2022-12-07T12:53:04;8.55;;;5.30;;
9005;SDS011;62284;50.702;7.140;2022-12-07T12:58:44;6.30;;;5.63;;
9005;SDS011;62284;50.702;7.140;2022-12-07T13:04:03;7.45;;;5.43;;
9005;SDS011;62284;50.702;7.140;2022-12-07T13:06:48;6.13;;;5.50;;
9005;SDS011;62284;50.702;7.140;2022-12-07T13:09:20;6.00;;;5.32;;
9005;SDS011;62284;50.702;7.140;2022-12-07T13:11:55;7.15;;;6.05;;
9005;SDS011;62284;50.702;7.140;2022-12-07T13:20:44;8.13;;;6.38;;
9005;SDS011;62284;50.702;7.140;2022-12-07T13:23:13;7.78;;;6.53;;
9005;SDS011;62284;50.702;7.140;2022-12-07T13:25:49;7.60;;;6.72;;
9005;SDS011;62284;50.702;7.140;2022-12-07T13:28:21;6.63;;;5.68;;
9005;SDS011;62284;50.702;7.140;2022-12-07T13:31:14;6.50;;;5.90;;
9005;SDS011;62284;50.702;7.140;2022-12-07T13:33:46;7.20;;;6.35;;
9005;SDS011;62284;50.702;7.140;2022-12-07T13:36:21;6.68;;;5.93;;
9005;SDS011;62284;50.702;7.140;2022-12-07T13:38:53;7.85;;;6.20;;
9005;SDS011;62284;50.702;7.140;2022-12-07T13:41:24;7.45;;;6.30;;
9005;SDS011;62284;50.702;7.140;2022-12-07T13:43:53;6.07;;;5.53;;
9005;SDS011;62284;50.702;7.140;2022-12-07T13:46:26;9.45;;;6.50;;
9005;SDS011;62284;50.702;7.140;2022-12-07T13:49:03;7.15;;;6.22;;
9005;SDS011;62284;50.702;7.140;2022-12-07T13:51:46;8.48;;;6.20;;
9005;SDS011;62284;50.702;7.140;2022-12-07T13:54:13;7.18;;;6.22;;
9005;SDS011;62284;50.702;7.140;2022-12-07T13:56:42;7.70;;;6.90;;
9005;SDS011;62284;50.702;7.140;2022-12-07T13:59:12;7.90;;;6.22;;
9005;SDS011;62284;50.702;7.140;2022-12-07T14:01:42;8.27;;;6.75;;
9005;SDS011;62284;50.702;7.140;2022-12-07T14:04:28;6.40;;;5.80;;
9005;SDS011;62284;50.702;7.140;2022-12-07T14:06:58;7.07;;;6.40;;
9005;SDS011;62284;50.702;7.140;2022-12-07T14:09:26;8.57;;;6.75;;
9005;SDS011;62284;50.702;7.140;2022-12-07T14:11:56;8.73;;;6.30;;
9005;SDS011;62284;50.702;7.140;2022-12-07T14:14:25;7.30;;;6.45;;
9005;SDS011;62284;50.702;7.140;2022-12-07T14:16:55;5.00;;;4.50;;
9005;SDS011;62284;50.702;7.140;2022-12-07T14:19:39;6.15;;;4.57;;
9005;SDS011;62284;50.702;7.140;2022-12-07T14:22:15;7.30;;;4.20;;
9005;SDS011;62284;50.702;7.140;2022-12-07T14:24:46;4.88;;;3.97;;
9005;SDS011;62284;50.702;7.140;2022-12-07T14:27:18;5.30;;;3.92;;
9005;SDS011;62284;50.702;7.140;2022-12-07T14:29:47;4.40;;;3.97;;
9005;SDS011;62284;50.702;7.140;2022-12-07T14:32:21;6.38;;;4.93;;
9005;SDS011;62284;50.702;7.140;2022-12-07T14:35:03;5.47;;;4.97;;
9005;SDS011;62284;50.702;7.140;2022-12-07T14:37:35;7.00;;;4.68;;
9005;SDS011;62284;50.702;7.140;2022-12-07T14:40:03;4.47;;;4.05;;
9005;SDS011;62284;50.702;7.140;2022-12-07T14:42:32;3.92;;;3.50;;
9005;SDS011;62284;50.702;7.140;2022-12-07T14:45:00;3.72;;;3.13;;
9005;SDS011;62284;50.702;7.140;2022-12-07T14:47:27;4.28;;;3.88;;
9005;SDS011;62284;50.702;7.140;2022-12-07T14:49:54;5.63;;;3.95;;
9005;SDS011;62284;50.702;7.140;2022-12-07T14:52:21;4.60;;;3.83;;
9005;SDS011;62284;50.702;7.140;2022-12-07T14:54:50;7.22;;;4.57;;
9005;SDS011;62284;50.702;7.140;2022-12-07T14:57:17;5.72;;;4.57;;
9005;SDS011;62284;50.702;7.140;2022-12-07T14:59:45;4.57;;;4.10;;
9005;SDS011;62284;50.702;7.140;2022-12-07T15:02:13;5.53;;;4.45;;
9005;SDS011;62284;50.702;7.140;2022-12-07T15:04:40;7.40;;;4.22;;
9005;SDS011;62284;50.702;7.140;2022-12-07T15:07:10;5.25;;;4.65;;
9005;SDS011;62284;50.702;7.140;2022-12-07T15:09:41;5.13;;;4.63;;
9005;SDS011;62284;50.702;7.140;2022-12-07T15:12:08;5.30;;;4.80;;
9005;SDS011;62284;50.702;7.140;2022-12-07T15:14:35;7.63;;;5.43;;
9005;SDS011;62284;50.702;7.140;2022-12-07T15:17:03;6.32;;;5.32;;
9005;SDS011;62284;50.702;7.140;2022-12-07T15:19:30;6.80;;;5.30;;
9005;SDS011;62284;50.702;7.140;2022-12-07T15:21:57;6.47;;;5.40;;
9005;SDS011;62284;50.702;7.140;2022-12-07T15:24:25;5.82;;;5.32;;
9005;SDS011;62284;50.702;7.140;2022-12-07T15:26:52;5.97;;;5.20;;
9005;SDS011;62284;50.702;7.140;2022-12-07T15:29:19;6.00;;;5.38;;
9005;SDS011;62284;50.702;7.140;2022-12-07T15:31:47;6.47;;;5.63;;
9005;SDS011;62284;50.702;7.140;2022-12-07T15:34:15;9.15;;;6.05;;
9005;SDS011;62284;50.702;7.140;2022-12-07T15:36:42;8.32;;;5.65;;